Wasagaming, Canada
Current Conditions -  °F | °C
As of 2:00 AM on Friday 31 Oct 2014 (Local Time) from CYDN Reporting Station
Clear Clear  
Wind Chill: 19°   Ceiling: Unl
Heat Index: 19°   Visibility: 9mi
Dew Point: 16°   Wind: 2mph
Humidity: 86%   Direction: 270°W
Pressure: 30.57"   Gusts: NA
Location:  50.65°N, 99.97°W
Report Text: CYDN 310700Z AUTO 27002KT 9SM CLR M07/M09 A3057 RMK SLP373
Loading
Personal Weather Stations






























Interactive Weather Map
Tropical Storm Tracking
New forecast layout! Learn more

10-Day Weather Forecast

Advertisements
Track Severe Weather on mobile